Stations météo

réclame
Mon MeteoGroup
Väderöarna, Suède (2501): Température de l'air & dewpoint: 13.06.2019 17:00:00 - 19.06.2019 17:00:00 (CEST)Väderöarna, Suède (2501): Vitesse du vent & gusts: 13.06.2019 17:00:00 - 19.06.2019 17:00:00 (CEST)Väderöarna, Suède (2501): Direction du vent: 13.06.2019 17:00:00 - 19.06.2019 17:00:00 (CEST)Väderöarna, Suède (2501): reduced air pressure: 13.06.2019 17:00:00 - 19.06.2019 17:00:00 (CEST)
Date & Time tt [°C] td [°C] ff [km/h] ff [knt] fx [km/h] fx [knt] dd ppp [hPa]
19.06.2019 17:00:00 16,7 12,6 20 11 24 13 NNW 1008,7
19.06.2019 16:00:00 17,2 11,0 16 9 21 11 NNW 1009,3
19.06.2019 15:00:00 17,1 12,4 12 6 14 8 NNW 1010,3
19.06.2019 14:00:00 17,4 12,7 9 5 12 6 NW 1010,7
19.06.2019 13:00:00 17,4 12,9 6 4 9 5 W 1011,2
19.06.2019 12:00:00 16,2 13,9 8 4 11 6 SW 1011,5
19.06.2019 11:00:00 16,0 13,8 8 4 10 6 SW 1011,6
19.06.2019 10:00:00 16,2 14,0 9 5 13 7 S 1011,8
19.06.2019 09:00:00 15,7 13,9 9 5 13 7 S 1011,5
19.06.2019 08:00:00 15,3 13,5 9 5 13 7 S 1011,7
19.06.2019 07:00:00 15,3 13,3 9 5 16 8 SSW 1011,7
19.06.2019 06:00:00 15,1 13,1 13 7 16 8 SW 1011,4
19.06.2019 05:00:00 15,1 13,1 14 8 19 10 SW 1011,6
19.06.2019 04:00:00 15,2 13,7 11 6 14 8 SW 1011,7
19.06.2019 03:00:00 15,3 13,7 11 6 15 8 S 1012,0
19.06.2019 02:00:00 15,3 13,3 9 5 14 8 S 1012,2
19.06.2019 01:00:00 15,5 13,5 9 5 16 8 SW 1012,1
19.06.2019 00:00:00 15,8 12,7 11 6 22 12 SW 1012,3
18.06.2019 23:00:00 16,3 14,7 20 11 27 15 SSW 1012,3
18.06.2019 22:00:00 16,4 14,9 21 11 24 13 S 1012,1
18.06.2019 21:00:00 16,6 15,0 11 6 30 16 S 1011,9
18.06.2019 20:00:00 16,6 14,6 20 11 28 15 SSE 1012,5
18.06.2019 19:00:00 16,6 15,3 16 8 21 11 S 1013,0
18.06.2019 18:00:00 16,6 14,8 17 9 21 12 SSE 1013,2
18.06.2019 17:00:00 16,9 14,7 12 6 19 11 S 1013,8
18.06.2019 16:00:00 16,8 14,6 18 10 22 12 SSW 1014,1
18.06.2019 15:00:00 17,0 15,0 16 8 23 13 S 1014,4
18.06.2019 14:00:00 17,0 15,0 19 11 28 15 S 1014,8
18.06.2019 13:00:00 16,7 15,1 22 12 34 18 S 1014,8
18.06.2019 12:00:00 16,2 14,6 27 14 44 24 S 1014,7
18.06.2019 11:00:00 16,3 14,8 35 19 45 24 SSE 1014,6
18.06.2019 10:00:00 15,5 14,0 29 16 39 21 SSE 1014,9
18.06.2019 09:00:00 15,2 14,1 30 16 39 21 SSE 1015,2
18.06.2019 08:00:00 15,2 14,1 35 19 46 25 S 1015,1
18.06.2019 07:00:00 15,6 14,3 27 14 33 18 SSE 1015,9
18.06.2019 06:00:00 15,0 13,4 17 9 19 11 SE 1016,2
18.06.2019 05:00:00 15,0 12,9 18 10 22 12 SSE 1016,7
18.06.2019 04:00:00 14,7 11,7 13 7 21 11 SSW 1017,0
18.06.2019 03:00:00 14,7 11,5 18 10 21 11 WSW 1017,4
18.06.2019 02:00:00 14,6 11,6 16 9 27 15 WSW 1017,7
18.06.2019 01:00:00 14,5 11,6 24 13 30 16 SW 1017,7
18.06.2019 00:00:00 14,3 11,8 24 13 34 18 WSW 1018,0
17.06.2019 23:00:00 14,3 12,0 31 17 40 21 SW 1018,0
17.06.2019 22:00:00 14,5 12,2 34 18 41 22 SW 1017,8
17.06.2019 21:00:00 14,9 11,9 29 16 37 20 SW 1017,6
17.06.2019 20:00:00 15,0 12,1 32 17 39 21 SW 1017,7
17.06.2019 19:00:00 15,5 12,1 33 18 39 21 SW 1017,5
17.06.2019 18:00:00 16,8 12,9 26 14 37 20 SW 1017,9
17.06.2019 17:00:00 16,4 13,5 24 13 31 17 S 1018,2
17.06.2019 16:00:00 16,2 12,7 24 13 29 15 S 1018,4
17.06.2019 15:00:00 16,0 12,6 21 11 33 18 S 1018,7
17.06.2019 14:00:00 15,6 12,2 24 13 36 19 SW 1018,8
17.06.2019 13:00:00 15,0 11,6 29 15 36 20 SW 1018,7
17.06.2019 12:00:00 15,2 10,2 24 13 35 19 SSW 1018,7
17.06.2019 11:00:00 14,3 10,1 29 16 34 18 SW 1018,5
17.06.2019 10:00:00 14,1 10,1 30 16 38 21 SW 1018,3
17.06.2019 09:00:00 13,5 10,7 35 19 39 21 SW 1017,8
17.06.2019 08:00:00 13,2 11,6 35 19 44 24 SW 1017,4
17.06.2019 07:00:00 13,2 11,6 36 19 41 22 SW 1017,2
17.06.2019 06:00:00 13,2 11,4 36 20 46 25 SW 1017,0
17.06.2019 05:00:00 13,3 11,2 38 20 46 25 SW 1016,5
17.06.2019 04:00:00 13,3 11,2 37 20 45 24 WSW 1016,4
17.06.2019 03:00:00 13,4 11,6 36 19 43 23 WSW 1016,4
17.06.2019 02:00:00 13,3 11,7 35 19 42 23 SW 1016,6
17.06.2019 01:00:00 13,2 12,1 36 19 48 26 SW 1016,4
17.06.2019 00:00:00 13,3 12,0 43 23 50 27 SW 1016,2
16.06.2019 23:00:00 13,7 12,1 39 21 48 26 SW 1016,0
16.06.2019 22:00:00 13,6 12,3 38 21 52 28 SW 1016,1
16.06.2019 21:00:00 13,5 12,4 43 23 49 27 SW 1015,6
16.06.2019 20:00:00 13,7 12,8 40 21 48 26 SW 1015,9
16.06.2019 19:00:00 14,7 12,2 39 21 46 25 SW 1015,6
16.06.2019 18:00:00 15,0 12,0 37 20 46 25 SW 1015,8
16.06.2019 17:00:00 15,2 11,4 25 14 36 19 SW 1016,1
16.06.2019 16:00:00 14,7 11,8 30 16 37 20 SW 1015,8
16.06.2019 15:00:00 14,3 13,5 30 16 34 19 SW 1015,5
16.06.2019 14:00:00 14,7 13,9 24 13 30 16 SW 1015,0
16.06.2019 13:00:00 14,7 14,1 24 13 29 16 SW 1014,5
16.06.2019 12:00:00 14,8 14,8 20 11 25 14 SW 1014,1
16.06.2019 11:00:00 15,5 15,3 21 12 32 17 SSE 1013,7
16.06.2019 10:00:00 15,8 14,3 23 13 29 16 S 1013,4
16.06.2019 09:00:00 16,2 14,0 22 12 29 16 S 1013,0
16.06.2019 08:00:00 16,6 13,1 20 11 27 14 S 1012,6
16.06.2019 07:00:00 17,1 12,2 17 9 22 12 SE 1012,4
16.06.2019 06:00:00 16,7 12,6 16 9 20 11 ESE 1012,2
16.06.2019 05:00:00 16,9 12,4 9 5 18 10 ESE 1012,4
16.06.2019 04:00:00 17,1 11,8 14 8 17 9 ESE 1012,5
16.06.2019 03:00:00 16,8 12,5 17 9 22 12 E 1012,4
16.06.2019 02:00:00 17,2 12,1 14 7 21 11 E 1012,9
16.06.2019 01:00:00 16,7 13,0 16 9 24 13 NE 1013,0
16.06.2019 00:00:00 17,4 12,3 19 10 26 14 NE 1013,5
15.06.2019 23:00:00 16,7 13,4 6 3 10 6 NE 1013,8
15.06.2019 22:00:00 17,7 12,8 9 5 16 9 SW 1013,6
15.06.2019 21:00:00 18,1 12,8 15 8 25 13 SSW 1014,3
15.06.2019 20:00:00 18,5 12,9 23 13 33 18 SSW 1014,1
15.06.2019 19:00:00 19,0 14,3 19 10 29 15 S 1014,0
15.06.2019 18:00:00 22,2 12,4 18 10 30 16 E 1013,8
15.06.2019 17:00:00 22,6 12,2 24 13 29 16 E 1014,1
15.06.2019 16:00:00 20,2 13,2 23 12 27 14 E 1014,6
15.06.2019 15:00:00 22,7 12,3 22 12 34 18 E 1014,7
15.06.2019 14:00:00 22,2 11,0 26 14 32 17 ENE 1015,2
15.06.2019 13:00:00 21,6 11,6 24 13 31 17 ENE 1015,4
15.06.2019 12:00:00 21,0 11,1 24 13 31 17 ENE 1015,9
15.06.2019 11:00:00 20,4 11,9 17 9 23 12 ENE 1016,8
15.06.2019 10:00:00 19,1 12,1 17 9 20 11 ENE 1017,0
15.06.2019 09:00:00 18,2 11,7 16 9 18 10 ENE 1017,5
15.06.2019 08:00:00 16,5 11,8 14 8 21 11 E 1017,7
15.06.2019 07:00:00 15,2 11,8 16 8 20 11 ENE 1018,0
15.06.2019 06:00:00 14,3 11,6 14 8 18 10 NE 1018,2
15.06.2019 05:00:00 14,6 11,6 14 8 16 9 E 1018,7
15.06.2019 04:00:00 14,3 12,3 10 6 12 7 NE 1018,8
15.06.2019 03:00:00 14,6 12,5 7 4 10 6 E 1019,2
15.06.2019 02:00:00 15,0 13,4 6 3 8 5 E 1019,5
15.06.2019 01:00:00 15,3 13,7 3 2 10 5 NW 1019,3
15.06.2019 00:00:00 15,9 13,0 0 0 14 7 N 1019,1
14.06.2019 23:00:00 16,4 12,2 6 3 13 7 ESE 1019,0
14.06.2019 22:00:00 16,4 12,0 11 6 13 7 E 1018,5
14.06.2019 21:00:00 15,9 13,2 9 5 10 5 SE 1018,7
14.06.2019 20:00:00 15,6 13,8 7 4 10 5 S 1018,9
14.06.2019 19:00:00 15,5 14,2 8 4 10 5 SE 1018,8
14.06.2019 18:00:00 15,8 14,0 5 3 13 7 SSE 1018,6
14.06.2019 17:00:00 15,8 14,3 14 7 25 14 SSW 1019,1
14.06.2019 16:00:00 15,8 14,2 19 10 26 14 SSW 1019,2
14.06.2019 15:00:00 16,1 14,3 18 10 25 13 S 1019,0
14.06.2019 14:00:00 16,3 14,3 22 12 29 16 S 1018,7
14.06.2019 13:00:00 16,0 14,0 24 13 31 17 S 1018,7
14.06.2019 12:00:00 15,9 14,1 24 13 32 18 S 1018,5
14.06.2019 11:00:00 15,9 14,1 25 14 31 17 SSE 1018,0
14.06.2019 10:00:00 15,6 12,7 23 12 29 16 SSE 1017,5
14.06.2019 09:00:00 14,6 12,6 21 12 23 13 ESE 1017,0
14.06.2019 08:00:00 14,2 12,8 18 10 28 15 E 1016,7
14.06.2019 07:00:00 14,3 12,7 22 12 42 23 ESE 1016,4
14.06.2019 06:00:00 14,6 12,5 26 14 32 17 ESE 1016,0
14.06.2019 05:00:00 14,0 12,2 18 10 23 12 E 1015,9
14.06.2019 04:00:00 13,8 12,0 16 9 21 12 E 1015,7
14.06.2019 03:00:00 14,1 12,3 16 9 18 10 ESE 1016,0
14.06.2019 02:00:00 14,0 12,0 9 5 18 10 E 1015,9
14.06.2019 01:00:00 14,3 13,2 8 5 11 6 E 1015,8
14.06.2019 00:00:00 14,6 13,0 5 3 9 5 NE 1016,0
13.06.2019 23:00:00 14,9 12,8 7 4 8 5 ENE 1015,7
13.06.2019 22:00:00 15,1 12,6 8 5 19 10 ESE 1015,1
13.06.2019 21:00:00 15,7 11,9 17 9 21 11 SSE 1014,7
13.06.2019 20:00:00 15,2 12,9 14 8 18 10 SSE 1014,4
13.06.2019 19:00:00 14,8 10,6 9 5 12 6 S 1014,1
13.06.2019 18:00:00 14,5 9,9 0 0 15 8 N 1013,8
13.06.2019 17:00:00 14,2 10,4 6 4 11 6 E 1013,5

tt = Température de l'air
td = dewpoint
ff = Vitesse du vent
fx = gusts
dd = Direction du vent
ppp = reduced air pressure

stations d'obs. à proximité